Have a Safe July 4th! 

Flight Track Log - Related Links

Times and Time Zones

All times are in EDT time to prevent confusion due to time zone crossing. See the EJA962 flight status page for this flight to view local times or setup timezone preferences in your user account.

Time Position Orientation Groundspeed Altitude Reporting Facility
EDT Latitude Longitude Course Direction KTS MPH feet Rate Location/Type
Thu 08:55:00 PM 38.9960 -105.4253 71° East  Level Estimated
Thu 08:55:56 PM 38.5683 -105.9800 72° East 399 459 17,400  Level Denver Center
Thu 08:56:00 PM 39.0318 -105.2858 72° East  Level Estimated
Thu 08:56:57 PM 38.4964 -105.8836 134° Southeast 409 471 19,300  Level Denver Center
Thu 08:57:00 PM 39.0675 -105.1462 72° East  Level Estimated
Thu 08:57:59 PM 38.4672 -105.7211 103° East 421 484 21,100  Level Denver Center
Thu 08:58:00 PM 39.1030 -105.0064 72° East  Level Estimated
Thu 08:59:00 PM 39.1404 -104.8586 72° East  Level Estimated
Thu 08:59:01 PM 38.4872 -105.5786 80° East 428 493 22,400  Level Denver Center
Thu 09:00:00 PM 39.1775 -104.7107 72° East  Level Estimated
Thu 09:00:05 PM 38.5408 -105.4181 67° East 437 503 24,400  Level Denver Center
Thu 09:01:00 PM 39.2145 -104.5626 72° East  Level Estimated
Thu 09:01:06 PM 38.5858 -105.2792 67° East 441 507 25,900  Level Denver Center
Thu 09:02:20 PM 38.6386 -105.1183 67° East 447 514 27,400 1,368 Climbing Denver Center
Thu 09:03:22 PM 38.6964 -104.9328 68° East 464 534 29,000 1,500 Climbing Denver Center
Thu 09:04:24 PM 38.7469 -104.7758 68° East 474 545 30,500 1,403 Climbing Denver Center
Thu 09:05:26 PM 38.7972 -104.6144 68° East 484 557 31,900 1,258 Climbing Denver Center
Thu 09:06:28 PM 38.8486 -104.4511 68° East 492 566 33,100 1,258 Climbing Denver Center
Thu 09:07:30 PM 38.9003 -104.2817 69° East 507 583 34,500 1,512 Climbing Denver Center
Thu 09:08:31 PM 38.9636 -104.0772 68° East 517 595 36,200 1,561 Climbing Denver Center
Thu 09:09:33 PM 39.0161 -103.9031 69° East 524 603 37,700 1,452 Climbing Denver Center
Thu 09:10:35 PM 39.0694 -103.7286 68° East 527 606 39,200 1,355 Climbing Denver Center
Thu 09:11:37 PM 39.1231 -103.5542 68° East 527 606 40,500 878 Climbing Denver Center
Thu 09:12:38 PM 39.1744 -103.3806 69° East 523 602 41,000 244 Climbing Denver Center
Thu 09:13:40 PM 39.2378 -103.1706 69° East 527 606 41,000  Level Denver Center
Thu 09:14:42 PM 39.2892 -102.9958 69° East 525 604 41,000  Level Denver Center
Thu 09:15:44 PM 39.3403 -102.8206 69° East 524 603 41,000  Level Denver Center
Thu 09:16:46 PM 39.3911 -102.6481 69° East 519 597 41,000  Level Denver Center
Thu 09:17:48 PM 39.4408 -102.4753 70° East 515 593 41,000  Level Denver Center
Thu 09:18:49 PM 39.4928 -102.2961 69° East 512 589 41,000  Level Denver Center
Thu 09:19:51 PM 39.5475 -102.1039 70° East 510 587 41,000  Level Denver Center
Thu 09:20:53 PM 39.5853 -101.9672 70° East 508 585 41,000  Level Denver Center
Thu 09:21:56 PM 39.6475 -101.7503 70° East 505 581 41,000  Level Denver Center
Thu 09:22:57 PM 39.6931 -101.5864 70° East 506 582 41,000  Level Denver Center
Thu 09:23:59 PM 39.7461 -101.3981 70° East 501 577 41,000  Level Denver Center
Thu 09:25:01 PM 39.7911 -101.2322 71° East 506 582 41,000  Level Denver Center
Thu 09:26:03 PM 39.8447 -101.0383 70° East 510 587 41,000  Level Denver Center
Thu 09:27:05 PM 39.8911 -100.8714 70° East 513 590 41,000  Level Denver Center
Thu 09:28:06 PM 39.9356 -100.7014 71° East 519 597 41,000 -293 Level Denver Center
Thu 09:29:08 PM 39.9889 -100.5053 70° East 517 595 40,400 -919 Descending Denver Center
Thu 09:30:10 PM 40.0353 -100.3308 71° East 530 610 39,100 -1,403 Descending Denver Center
Thu 09:31:12 PM 40.0903 -100.1236 71° East 541 623 37,500 -1,452 Descending Denver Center
Thu 09:32:14 PM 40.1383 -99.9392 71° East 557 641 36,100 -1,403 Descending Denver Center
Thu 09:33:16 PM 40.1908 -99.7431 71° East 552 635 34,600 -1,306 Descending Denver Center
Thu 09:34:18 PM 40.2400 -99.5525 71° East 553 636 33,400 -780 Descending Denver Center
Thu 09:35:19 PM 40.2906 -99.3589 71° East 562 647 33,000 -195 Descending Denver Center
Thu 09:36:21 PM 40.3475 -99.1306 72° East 553 636 33,000  Level Denver Center
Thu 09:37:23 PM 40.3864 -98.9786 71° East 552 635 33,000  Level Denver Center
Thu 09:38:38 PM 40.4525 -98.7136 72° East 552 635 33,000 -1,226 Level Denver Center
Thu 09:39:40 PM 40.5000 -98.5200 72° East 561 646 30,200 -3,000 Descending Denver Center
Thu 09:40:52 PM 40.5578 -98.2881 72° East 563 648 26,300 -3,153 Descending Minneapolis Center
Thu 09:42:00 PM 40.5970 -98.1089 73° East  Level FlightAware Approximate
Thu 09:42:56 PM 40.6506 -97.9058 73° East 497 572 19,900  Level Minneapolis Center
Thu 09:43:58 PM 40.6886 -97.7472 72° East 468 539 17,300 -2,488 Descending Minneapolis Center
Thu 09:44:59 PM 40.7011 -97.5894 84° East 377 434 14,800 -2,330 Descending Minneapolis Center
Thu 09:45:41 PM 40.7236 -97.5022 71° East 370 426 13,300 -1,872 Descending Minneapolis Center
Thu 09:47:04 PM 40.7853 -97.3314 64° Northeast 368 423 10,900 -1,670 Descending Minneapolis Center
Thu 09:47:36 PM 40.7839 -97.2631 92° East 310 357 10,100 -1,548 Descending Minneapolis Center
Thu 09:48:06 PM 40.8128 -97.2250 45° Northeast 320 368 9,300 -2,066 Descending Minneapolis Center
Thu 09:48:37 PM 40.8094 -97.1589 94° East 293 337 8,000 -2,032 Descending Minneapolis Center
Thu 09:49:08 PM 40.8369 -97.1200 47° Northeast 303 349 7,200 -1,869 Descending Minneapolis Center
Thu 09:49:38 PM 40.8350 -97.0519 92° East 303 349 6,100 -1,742 Descending Minneapolis Center
Thu 09:50:10 PM 40.8603 -97.0142 48° Northeast 302 348 5,400 -1,613 Descending Minneapolis Center
Thu 09:51:11 PM 40.8836 -96.9119 73° East 295 339 3,600 -1,268 Descending Minneapolis Center
Thu 09:52:13 PM 40.8964 -96.8258 79° East 259 298 2,800 -774 Descending Minneapolis Center
Thu 09:53:15 PM 40.8931 -96.7619 94° East 182 209 2,000 -532 Descending Minneapolis Center
Thu 09:54:17 PM 40.8653 -96.7358 145° Southeast 164 189 1,700 -290 Descending Minneapolis Center
Thu 09:56:00 PM 40.8500 -96.7500 180° South  Level FlightAware Approximate

Login

Don't have an account? Register now (free) for customized features, flight alerts, and more!